createdAt,value
2022-09-21T00:08:25.638Z,9.40
2022-09-21T00:18:28.063Z,9.30
2022-09-21T00:28:30.002Z,9.10
2022-09-21T00:38:32.241Z,9.00
2022-09-21T00:48:35.704Z,9.00
2022-09-21T00:58:43.683Z,8.80
2022-09-21T01:08:45.620Z,8.80
2022-09-21T01:19:05.424Z,8.70
2022-09-21T01:29:16.894Z,8.70
2022-09-21T01:39:22.778Z,8.50
2022-09-21T01:49:45.464Z,8.50
2022-09-21T02:00:01.382Z,8.50
2022-09-21T02:10:31.543Z,8.30
2022-09-21T02:20:47.443Z,8.20
2022-09-21T02:30:59.506Z,8.10
2022-09-21T02:41:19.446Z,8.10
2022-09-21T02:51:34.144Z,8.00
2022-09-21T03:01:39.111Z,7.90
2022-09-21T03:11:45.462Z,7.80
2022-09-21T03:21:48.541Z,7.70
2022-09-21T03:31:51.398Z,7.70
2022-09-21T03:41:53.580Z,7.60
2022-09-21T03:51:55.958Z,7.60
2022-09-21T04:02:00.781Z,7.50
2022-09-21T04:12:03.941Z,7.40
2022-09-21T04:22:06.003Z,7.30
2022-09-21T04:32:09.084Z,7.50
2022-09-21T04:42:12.403Z,7.30
2022-09-21T04:52:18.956Z,7.10
2022-09-21T05:02:23.823Z,7.10
2022-09-21T05:12:26.027Z,7.10
2022-09-21T05:22:28.250Z,7.20
2022-09-21T05:32:59.901Z,7.20
2022-09-21T05:43:04.227Z,7.10
2022-09-21T05:53:26.247Z,7.30
2022-09-21T06:03:33.288Z,7.10
2022-09-21T06:13:35.265Z,7.40
2022-09-21T06:23:37.732Z,7.60
2022-09-21T06:33:39.965Z,7.60
2022-09-21T06:43:42.068Z,8.20
2022-09-21T06:53:44.504Z,8.60
2022-09-21T07:03:47.265Z,8.70
2022-09-21T07:13:49.410Z,9.10
2022-09-21T07:23:51.383Z,9.40
2022-09-21T07:34:08.312Z,9.90
2022-09-21T07:44:10.522Z,10.70
2022-09-21T07:54:17.807Z,10.80
2022-09-21T08:04:19.854Z,11.40
2022-09-21T08:14:26.074Z,12.00
2022-09-21T08:24:29.468Z,13.10
2022-09-21T08:34:32.248Z,13.50
2022-09-21T08:44:59.901Z,14.10
2022-09-21T08:55:17.496Z,14.60
2022-09-21T09:05:50.747Z,14.90
2022-09-21T09:16:23.164Z,15.70
2022-09-21T09:26:37.892Z,16.10
2022-09-21T09:37:00.755Z,16.50
2022-09-21T09:47:24.772Z,17.30
2022-09-21T09:57:37.548Z,17.90
2022-09-21T10:07:51.168Z,18.10
2022-09-21T10:18:18.991Z,18.40
2022-09-21T10:28:28.425Z,18.30
2022-09-21T10:38:30.434Z,18.70
2022-09-21T10:48:33.586Z,18.90
2022-09-21T10:58:36.931Z,19.40
2022-09-21T11:09:02.188Z,19.50
2022-09-21T11:19:33.704Z,19.60
2022-09-21T11:29:57.248Z,19.70
2022-09-21T11:40:08.750Z,20.00
2022-09-21T11:50:37.567Z,20.00
2022-09-21T12:01:14.731Z,20.30
2022-09-21T12:11:26.942Z,20.40
2022-09-21T12:21:39.455Z,20.40
2022-09-21T12:32:09.435Z,20.30
2022-09-21T12:42:21.331Z,20.20
2022-09-21T12:52:29.487Z,20.00
2022-09-21T13:03:05.841Z,20.80
2022-09-21T13:13:20.303Z,20.50
2022-09-21T13:23:45.257Z,20.60
2022-09-21T13:34:20.070Z,20.20
2022-09-21T13:44:42.937Z,20.50
2022-09-21T13:55:00.046Z,20.60
2022-09-21T14:05:25.432Z,20.10
2022-09-21T14:15:27.406Z,20.10
2022-09-21T14:25:32.280Z,19.00
2022-09-21T14:35:43.329Z,19.60
2022-09-21T14:46:21.034Z,19.60
2022-09-21T14:56:53.989Z,19.60
2022-09-21T15:07:26.584Z,19.30
2022-09-21T15:17:33.511Z,19.20
2022-09-21T15:27:37.464Z,18.90
2022-09-21T15:37:41.609Z,18.90
2022-09-21T15:47:47.526Z,18.60
2022-09-21T15:57:56.712Z,18.20
2022-09-21T16:08:32.176Z,18.00
2022-09-21T16:18:45.569Z,17.80
2022-09-21T16:28:48.489Z,17.60
2022-09-21T16:39:00.649Z,17.30
2022-09-21T16:49:02.944Z,17.00
2022-09-21T16:59:11.088Z,16.50
2022-09-21T17:09:30.026Z,16.00
2022-09-21T17:19:35.189Z,15.40
2022-09-21T17:29:39.869Z,15.00
2022-09-21T17:39:45.103Z,14.50
2022-09-21T17:49:48.695Z,14.10
2022-09-21T18:00:04.145Z,13.80
2022-09-21T18:10:07.148Z,13.50
2022-09-21T18:20:37.765Z,13.40
2022-09-21T18:30:42.466Z,13.00
2022-09-21T18:41:15.370Z,12.90
2022-09-21T18:51:22.549Z,12.60
2022-09-21T19:01:25.964Z,12.50
2022-09-21T19:11:30.647Z,12.30
2022-09-21T19:21:39.484Z,12.30
2022-09-21T19:31:44.172Z,12.20
2022-09-21T19:42:15.892Z,12.00
2022-09-21T19:52:26.207Z,12.00
2022-09-21T20:02:37.933Z,11.90
2022-09-21T20:13:07.825Z,11.80
2022-09-21T20:23:14.425Z,11.80
2022-09-21T20:33:20.104Z,11.60
2022-09-21T20:43:24.977Z,11.50
2022-09-21T20:53:30.150Z,11.20
2022-09-21T21:03:32.260Z,11.00
2022-09-21T21:13:34.946Z,10.90
2022-09-21T21:23:57.728Z,10.90
2022-09-21T21:34:00.144Z,10.80
2022-09-21T21:44:02.610Z,11.00
2022-09-21T21:54:04.567Z,10.90
2022-09-21T22:04:06.547Z,10.80
2022-09-21T22:14:10.263Z,10.70
2022-09-21T22:24:13.103Z,10.70
2022-09-21T22:34:16.642Z,10.70
2022-09-21T22:44:18.668Z,10.60
2022-09-21T22:54:20.567Z,10.60
2022-09-21T23:04:23.084Z,10.40
2022-09-21T23:14:26.186Z,10.10
2022-09-21T23:24:28.069Z,9.80
2022-09-21T23:34:30.040Z,9.60
2022-09-21T23:44:32.668Z,9.50
2022-09-21T23:54:34.892Z,9.30
